createdAt,value
2023-05-04T00:00:28.197Z,17.10
2023-05-04T00:02:55.749Z,18.17
2023-05-04T00:05:23.093Z,17.08
2023-05-04T00:07:50.279Z,12.25
2023-05-04T00:10:17.411Z,13.73
2023-05-04T00:12:46.444Z,15.27
2023-05-04T00:15:13.528Z,14.98
2023-05-04T00:17:40.835Z,15.05
2023-05-04T00:20:08.464Z,12.98
2023-05-04T00:22:35.727Z,17.63
2023-05-04T00:25:02.957Z,16.40
2023-05-04T00:27:30.274Z,13.68
2023-05-04T00:29:57.349Z,18.80
2023-05-04T00:32:24.462Z,16.13
2023-05-04T00:34:51.589Z,14.90
2023-05-04T00:37:18.910Z,14.35
2023-05-04T00:39:46.099Z,16.00
2023-05-04T00:42:13.288Z,15.20
2023-05-04T00:44:44.780Z,18.90
2023-05-04T00:47:13.799Z,18.33
2023-05-04T00:49:41.161Z,22.75
2023-05-04T00:52:09.539Z,17.67
2023-05-04T00:54:36.888Z,16.20
2023-05-04T00:57:04.670Z,20.42
2023-05-04T00:59:31.787Z,18.05
2023-05-04T01:01:58.865Z,13.50
2023-05-04T01:04:26.539Z,18.42
2023-05-04T01:07:15.378Z,19.00
2023-05-04T01:10:08.028Z,18.63
2023-05-04T01:12:49.120Z,20.48
2023-05-04T01:15:16.558Z,17.17
2023-05-04T01:17:43.598Z,17.45
2023-05-04T01:20:11.522Z,21.58
2023-05-04T01:22:39.229Z,19.30
2023-05-04T01:25:07.865Z,16.80
2023-05-04T01:27:42.841Z,20.13
2023-05-04T01:30:43.129Z,21.65
2023-05-04T01:33:10.563Z,19.63
2023-05-04T01:35:38.005Z,18.90
2023-05-04T01:38:05.935Z,22.05
2023-05-04T01:40:33.080Z,18.98
2023-05-04T01:43:00.230Z,19.67
2023-05-04T01:45:27.386Z,21.67
2023-05-04T01:47:54.708Z,23.95
2023-05-04T01:50:21.768Z,19.25
2023-05-04T01:52:48.841Z,21.13
2023-05-04T01:55:16.092Z,18.85
2023-05-04T01:57:43.260Z,19.10
2023-05-04T02:00:10.955Z,24.98
2023-05-04T02:02:44.936Z,26.55
2023-05-04T02:05:16.725Z,18.50
2023-05-04T02:07:44.024Z,24.42
2023-05-04T02:10:11.549Z,21.85
2023-05-04T02:12:38.835Z,19.67
2023-05-04T02:15:06.521Z,19.08
2023-05-04T02:17:33.830Z,19.27
2023-05-04T02:20:00.861Z,18.98
2023-05-04T02:22:28.000Z,21.50
2023-05-04T02:24:55.058Z,26.27
2023-05-04T02:27:22.193Z,19.92
2023-05-04T02:29:49.285Z,17.70
2023-05-04T02:32:16.698Z,18.02
2023-05-04T02:34:45.049Z,22.38
2023-05-04T02:37:12.150Z,20.15
2023-05-04T02:39:39.333Z,21.23
2023-05-04T02:42:06.493Z,20.25
2023-05-04T02:44:33.591Z,24.75
2023-05-04T02:47:00.666Z,25.88
2023-05-04T02:49:29.988Z,22.50
2023-05-04T02:51:57.101Z,21.02
2023-05-04T02:54:24.187Z,18.48
2023-05-04T02:56:51.343Z,20.90
2023-05-04T02:59:18.414Z,20.10
2023-05-04T03:01:45.595Z,20.55
2023-05-04T03:04:12.812Z,25.25
2023-05-04T03:06:39.911Z,23.73
2023-05-04T03:09:07.193Z,31.77
2023-05-04T03:11:34.273Z,25.70
2023-05-04T03:14:01.418Z,25.42
2023-05-04T03:16:28.591Z,29.95
2023-05-04T03:21:40.451Z,25.67
2023-05-04T03:24:07.407Z,25.90
2023-05-04T03:26:34.662Z,25.55
2023-05-04T03:29:02.417Z,25.27
2023-05-04T03:31:29.749Z,22.25
2023-05-04T03:33:56.928Z,21.40
2023-05-04T03:36:24.205Z,23.75
2023-05-04T03:38:51.772Z,23.75
2023-05-04T03:41:20.880Z,26.00
2023-05-04T03:43:48.586Z,28.10
2023-05-04T03:46:15.748Z,22.85
2023-05-04T03:48:43.210Z,27.42
2023-05-04T03:51:14.497Z,23.52
2023-05-04T03:53:43.429Z,26.42
2023-05-04T03:56:15.068Z,30.70
2023-05-04T03:58:42.182Z,23.88
2023-05-04T04:01:09.373Z,28.88
2023-05-04T04:03:36.766Z,27.73
2023-05-04T04:06:04.141Z,24.13
2023-05-04T04:08:31.668Z,25.17
2023-05-04T04:10:58.871Z,27.17
2023-05-04T04:13:25.977Z,27.65
2023-05-04T04:15:52.899Z,29.05
2023-05-04T04:18:20.328Z,24.92
2023-05-04T04:20:47.510Z,29.85
2023-05-04T04:23:18.565Z,27.58
2023-05-04T04:25:46.827Z,28.80
2023-05-04T04:28:14.624Z,27.73
2023-05-04T04:30:41.937Z,27.80
2023-05-04T04:33:10.022Z,29.88
2023-05-04T04:35:37.422Z,33.08
2023-05-04T04:38:05.136Z,23.38
2023-05-04T04:40:32.780Z,32.08
2023-05-04T04:42:59.905Z,24.52
2023-05-04T04:45:26.898Z,27.10
2023-05-04T04:47:54.015Z,27.17
2023-05-04T04:50:21.198Z,29.27
2023-05-04T04:52:48.311Z,25.23
2023-05-04T04:55:16.990Z,26.33
2023-05-04T04:57:44.051Z,29.25
2023-05-04T05:00:14.316Z,24.77
2023-05-04T05:02:41.700Z,28.38
2023-05-04T05:05:09.207Z,27.10
2023-05-04T05:07:36.469Z,25.52
2023-05-04T05:10:04.262Z,29.52
2023-05-04T05:12:31.820Z,24.85
2023-05-04T05:14:59.189Z,24.30
2023-05-04T05:17:26.841Z,25.20
2023-05-04T05:19:53.875Z,26.95
2023-05-04T05:22:20.936Z,23.05
2023-05-04T05:24:48.053Z,30.63
2023-05-04T05:27:15.093Z,24.42
2023-05-04T05:29:42.114Z,22.88
2023-05-04T05:32:09.282Z,23.58
2023-05-04T05:34:38.974Z,29.92
2023-05-04T05:37:06.200Z,24.10
2023-05-04T05:39:34.065Z,25.98
2023-05-04T05:42:01.997Z,25.33
2023-05-04T05:44:29.100Z,26.48
2023-05-04T05:46:56.414Z,21.40
2023-05-04T05:49:23.423Z,23.90
2023-05-04T05:51:50.499Z,20.35
2023-05-04T05:54:17.507Z,25.85
2023-05-04T05:56:44.597Z,21.27
2023-05-04T05:59:11.597Z,27.10
2023-05-04T06:01:38.762Z,23.55
2023-05-04T06:04:05.968Z,23.48
2023-05-04T06:06:33.556Z,20.27
2023-05-04T06:09:00.605Z,23.42
2023-05-04T06:11:28.214Z,26.40
2023-05-04T06:13:55.412Z,23.08
2023-05-04T06:16:22.589Z,19.85
2023-05-04T06:18:49.711Z,26.35
2023-05-04T06:21:16.849Z,28.77
2023-05-04T06:23:44.580Z,23.05
2023-05-04T06:26:11.702Z,18.15
2023-05-04T06:28:38.609Z,23.27
2023-05-04T06:31:05.889Z,22.65
2023-05-04T06:33:32.891Z,21.58
2023-05-04T06:36:00.069Z,20.95
2023-05-04T06:38:27.347Z,21.77
2023-05-04T06:40:54.455Z,19.92
2023-05-04T06:43:21.476Z,21.20
2023-05-04T06:45:48.473Z,19.70
2023-05-04T06:48:15.502Z,22.00
2023-05-04T06:50:42.901Z,17.20
2023-05-04T06:53:12.405Z,19.65
2023-05-04T06:55:39.564Z,17.30
2023-05-04T06:58:07.068Z,18.13
2023-05-04T07:00:34.334Z,19.92
2023-05-04T07:03:01.450Z,23.05
2023-05-04T07:05:29.205Z,20.52
2023-05-04T07:07:56.592Z,20.70
2023-05-04T07:10:23.878Z,22.35
2023-05-04T07:12:51.172Z,19.90
2023-05-04T07:15:18.481Z,20.80
2023-05-04T07:17:46.791Z,18.83
2023-05-04T07:20:16.951Z,16.38
2023-05-04T07:22:44.255Z,21.95
2023-05-04T07:25:11.320Z,18.23
2023-05-04T07:27:38.540Z,21.67
2023-05-04T07:30:08.265Z,16.20
2023-05-04T07:32:35.415Z,20.15
2023-05-04T07:35:02.332Z,18.45
2023-05-04T07:37:30.117Z,22.17
2023-05-04T07:40:00.281Z,18.70
2023-05-04T07:42:28.677Z,18.15
2023-05-04T07:44:55.717Z,19.55
2023-05-04T07:47:24.323Z,22.60
2023-05-04T07:49:51.896Z,16.63
2023-05-04T07:52:19.367Z,16.15
2023-05-04T07:54:46.395Z,17.80
2023-05-04T07:57:13.540Z,21.55
2023-05-04T07:59:40.583Z,15.80
2023-05-04T08:02:07.815Z,17.58
2023-05-04T08:04:34.966Z,16.13
2023-05-04T08:07:02.221Z,15.93
2023-05-04T08:09:29.384Z,19.50
2023-05-04T08:11:56.553Z,17.42
2023-05-04T08:14:23.854Z,18.80
2023-05-04T08:16:51.055Z,20.27
2023-05-04T08:19:19.388Z,21.77
2023-05-04T08:21:46.612Z,15.70
2023-05-04T08:24:13.562Z,17.27
2023-05-04T08:26:41.380Z,18.10
2023-05-04T08:29:10.945Z,18.38
2023-05-04T08:31:38.139Z,16.48
2023-05-04T08:34:05.638Z,14.70
2023-05-04T08:36:33.035Z,16.50
2023-05-04T08:39:00.067Z,17.67
2023-05-04T08:41:27.276Z,16.27
2023-05-04T08:43:55.516Z,15.95
2023-05-04T08:46:23.060Z,16.50
2023-05-04T08:48:50.397Z,16.17
2023-05-04T08:51:19.224Z,13.35
2023-05-04T08:53:48.292Z,14.52
2023-05-04T08:56:17.773Z,15.80
2023-05-04T08:58:57.965Z,13.85
2023-05-04T09:01:26.540Z,14.60
2023-05-04T09:03:54.286Z,12.85
2023-05-04T09:06:22.683Z,17.33
2023-05-04T09:08:49.660Z,15.00
2023-05-04T09:11:16.811Z,14.65
2023-05-04T09:13:43.909Z,12.32
2023-05-04T09:16:12.245Z,16.67
2023-05-04T09:18:44.211Z,15.15
2023-05-04T09:21:11.899Z,18.50
2023-05-04T09:23:49.669Z,17.95
2023-05-04T09:26:30.369Z,17.95
2023-05-04T09:29:09.804Z,19.13
2023-05-04T09:31:48.416Z,14.65
2023-05-04T09:34:15.966Z,17.90
2023-05-04T09:36:43.034Z,14.30
2023-05-04T09:39:14.311Z,21.92
2023-05-04T09:41:42.204Z,18.23
2023-05-04T09:44:23.816Z,17.38
2023-05-04T09:46:55.788Z,21.17
2023-05-04T09:49:32.812Z,14.00
2023-05-04T09:52:03.720Z,11.93
2023-05-04T09:54:36.104Z,13.88
2023-05-04T09:57:14.682Z,14.13
2023-05-04T09:59:42.311Z,17.15
2023-05-04T10:02:21.816Z,17.00
2023-05-04T10:04:51.830Z,15.98
2023-05-04T10:07:19.616Z,13.20
2023-05-04T10:09:48.750Z,14.48
2023-05-04T10:12:15.885Z,15.52
2023-05-04T10:14:46.933Z,14.98
2023-05-04T10:17:52.283Z,13.70
2023-05-04T10:20:38.156Z,12.32
2023-05-04T10:23:24.118Z,15.30
2023-05-04T10:26:06.327Z,14.93
2023-05-04T10:29:05.634Z,14.48
2023-05-04T10:31:43.833Z,17.42
2023-05-04T10:34:11.660Z,14.88
2023-05-04T10:36:44.379Z,17.70
2023-05-04T10:39:22.316Z,12.38
2023-05-04T10:42:08.386Z,14.68
2023-05-04T10:44:49.046Z,15.30
2023-05-04T10:47:26.999Z,12.73
2023-05-04T10:50:14.309Z,17.23
2023-05-04T10:52:54.054Z,16.55
2023-05-04T10:55:22.266Z,14.60
2023-05-04T10:57:49.904Z,15.90
2023-05-04T11:00:18.312Z,20.45
2023-05-04T11:02:47.272Z,17.45
2023-05-04T11:05:19.984Z,17.70
2023-05-04T11:07:50.734Z,19.17
2023-05-04T11:10:25.907Z,17.95
2023-05-04T11:12:55.136Z,18.48
2023-05-04T11:15:22.069Z,19.08
2023-05-04T11:17:53.252Z,19.63
2023-05-04T11:20:26.477Z,15.65
2023-05-04T11:22:56.584Z,20.83
2023-05-04T11:25:30.818Z,16.73
2023-05-04T11:27:58.838Z,23.85
2023-05-04T11:30:46.245Z,17.95
2023-05-04T11:33:17.183Z,23.33
2023-05-04T11:35:44.588Z,17.20
2023-05-04T11:38:11.522Z,19.42
2023-05-04T11:40:41.335Z,20.50
2023-05-04T11:43:11.347Z,17.17
2023-05-04T11:45:40.612Z,21.95
2023-05-04T11:48:09.282Z,15.40
2023-05-04T11:50:36.752Z,17.90
2023-05-04T11:53:05.055Z,19.92
2023-05-04T11:55:32.681Z,18.48
2023-05-04T11:58:05.021Z,18.25
2023-05-04T12:00:39.686Z,15.35
2023-05-04T12:03:08.620Z,18.27
2023-05-04T12:05:36.882Z,12.20
2023-05-04T12:08:04.629Z,14.63
2023-05-04T12:10:34.975Z,12.95
2023-05-04T12:13:02.479Z,13.73
2023-05-04T12:15:37.367Z,13.48
2023-05-04T12:18:04.464Z,13.63
2023-05-04T12:20:31.512Z,13.52
2023-05-04T12:22:58.833Z,12.38
2023-05-04T12:25:25.992Z,11.60
2023-05-04T12:27:53.321Z,16.15
2023-05-04T12:30:20.285Z,12.07
2023-05-04T12:32:47.253Z,12.60
2023-05-04T12:35:14.185Z,13.98
2023-05-04T12:37:41.241Z,14.77
2023-05-04T12:40:21.174Z,12.73
2023-05-04T12:42:54.741Z,13.52
2023-05-04T12:45:22.635Z,13.60
2023-05-04T12:47:49.746Z,12.55
2023-05-04T12:50:16.852Z,16.52
2023-05-04T12:52:43.767Z,14.35
2023-05-04T12:55:10.663Z,17.02
2023-05-04T12:57:38.544Z,19.60
2023-05-04T13:00:09.525Z,14.40
2023-05-04T13:02:37.723Z,18.05
2023-05-04T13:05:05.094Z,13.60
2023-05-04T13:07:32.205Z,15.95
2023-05-04T13:09:59.215Z,18.95
2023-05-04T13:12:26.201Z,19.25
2023-05-04T13:14:55.981Z,22.20
2023-05-04T13:17:22.929Z,16.40
2023-05-04T13:19:50.332Z,19.20
2023-05-04T13:22:17.282Z,19.42
2023-05-04T13:24:44.238Z,16.15
2023-05-04T13:27:11.998Z,23.70
2023-05-04T13:29:39.021Z,19.30
2023-05-04T13:32:06.702Z,28.15
2023-05-04T13:34:34.664Z,20.90
2023-05-04T13:37:01.555Z,16.85
2023-05-04T13:39:28.524Z,16.73
2023-05-04T13:41:55.938Z,18.92
2023-05-04T13:44:22.941Z,16.52
2023-05-04T13:46:49.906Z,19.88
2023-05-04T13:49:16.822Z,14.60
2023-05-04T13:51:43.711Z,19.00
2023-05-04T13:54:10.548Z,17.40
2023-05-04T13:56:37.482Z,18.60
2023-05-04T13:59:04.410Z,19.35
2023-05-04T14:01:31.398Z,21.83
2023-05-04T14:03:58.467Z,18.73
2023-05-04T14:06:26.139Z,15.35
2023-05-04T14:08:53.121Z,19.55
2023-05-04T14:11:20.448Z,15.40
2023-05-04T14:13:48.618Z,15.02
2023-05-04T14:16:15.752Z,15.75
2023-05-04T14:18:42.688Z,15.98
2023-05-04T14:21:09.711Z,14.80
2023-05-04T14:23:37.310Z,15.20
2023-05-04T14:26:04.568Z,16.38
2023-05-04T14:28:31.956Z,14.32
2023-05-04T14:30:59.608Z,19.02
2023-05-04T14:33:26.700Z,15.43
2023-05-04T14:35:53.598Z,15.25
2023-05-04T14:38:20.617Z,15.88
2023-05-04T14:40:49.558Z,11.32
2023-05-04T14:43:16.875Z,14.20
2023-05-04T14:45:44.090Z,11.57
2023-05-04T14:48:11.161Z,13.75
2023-05-04T14:50:38.102Z,10.85
2023-05-04T14:53:04.993Z,13.88
2023-05-04T14:55:33.626Z,12.60
2023-05-04T14:58:00.857Z,10.15
2023-05-04T15:00:27.843Z,11.07
2023-05-04T15:02:55.196Z,13.60
2023-05-04T15:05:22.182Z,9.20
2023-05-04T15:07:49.037Z,11.25
2023-05-04T15:10:16.149Z,9.20
2023-05-04T15:12:43.484Z,11.10
2023-05-04T15:15:11.278Z,9.85
2023-05-04T15:17:38.488Z,9.40
2023-05-04T15:20:06.598Z,9.52
2023-05-04T15:22:33.728Z,5.90
2023-05-04T15:25:01.817Z,9.13
2023-05-04T15:27:28.639Z,7.70
2023-05-04T15:29:55.748Z,5.15
2023-05-04T15:32:22.816Z,6.13
2023-05-04T15:35:00.868Z,7.60
2023-05-04T15:37:28.566Z,6.07
2023-05-04T15:39:55.545Z,6.00
2023-05-04T15:42:22.599Z,9.77
2023-05-04T15:44:49.705Z,7.22
2023-05-04T15:47:16.732Z,6.68
2023-05-04T15:49:43.609Z,5.55
2023-05-04T15:52:11.134Z,6.75
2023-05-04T15:54:37.970Z,3.85
2023-05-04T15:57:04.908Z,6.18
2023-05-04T15:59:31.761Z,6.13
2023-05-04T16:01:58.677Z,3.85
2023-05-04T16:04:25.574Z,8.70
2023-05-04T16:06:52.543Z,6.15
2023-05-04T16:09:20.744Z,7.70
2023-05-04T16:11:47.898Z,3.72
2023-05-04T16:14:16.412Z,9.55
2023-05-04T16:16:43.801Z,8.27
2023-05-04T16:19:11.765Z,34.08
2023-05-04T16:21:39.063Z,22.65
2023-05-04T16:24:07.782Z,8.57
2023-05-04T16:26:34.870Z,11.63
2023-05-04T16:29:01.878Z,13.30
2023-05-04T16:31:29.059Z,7.55
2023-05-04T16:33:56.712Z,4.60
2023-05-04T16:36:24.121Z,6.43
2023-05-04T16:38:51.091Z,8.15
2023-05-04T16:41:18.708Z,3.80
2023-05-04T16:43:45.862Z,6.13
2023-05-04T16:46:13.037Z,5.72
2023-05-04T16:48:40.166Z,3.97
2023-05-04T16:51:08.352Z,4.65
2023-05-04T16:53:35.733Z,7.15
2023-05-04T16:56:02.826Z,5.38
2023-05-04T16:58:29.958Z,27.98
2023-05-04T17:00:58.281Z,12.43
2023-05-04T17:03:25.456Z,12.88
2023-05-04T17:05:52.759Z,12.93
2023-05-04T17:08:19.817Z,12.98
2023-05-04T17:10:46.879Z,7.43
2023-05-04T17:13:13.813Z,6.00
2023-05-04T17:15:41.017Z,44.50
2023-05-04T17:18:08.270Z,14.90
2023-05-04T17:20:35.400Z,7.82
2023-05-04T17:23:02.477Z,5.13
2023-05-04T17:25:30.201Z,4.72
2023-05-04T17:27:57.341Z,4.75
2023-05-04T17:30:24.610Z,4.72
2023-05-04T17:32:52.527Z,5.18
2023-05-04T17:35:25.239Z,8.35
2023-05-04T17:37:57.916Z,5.22
2023-05-04T17:40:25.862Z,6.55
2023-05-04T17:42:52.915Z,5.47
2023-05-04T17:45:20.137Z,7.68
2023-05-04T17:47:47.378Z,8.50
2023-05-04T17:50:14.521Z,6.50
2023-05-04T17:52:41.626Z,8.75
2023-05-04T17:55:09.123Z,8.48
2023-05-04T17:57:36.350Z,7.47
2023-05-04T18:00:05.517Z,7.72
2023-05-04T18:02:34.171Z,8.13
2023-05-04T18:05:01.370Z,8.30
2023-05-04T18:07:28.358Z,10.73
2023-05-04T18:09:56.161Z,8.38
2023-05-04T18:12:23.539Z,8.43
2023-05-04T18:14:51.181Z,8.82
2023-05-04T18:17:18.284Z,10.35
2023-05-04T18:19:45.425Z,10.93
2023-05-04T18:22:12.374Z,9.70
2023-05-04T18:24:39.524Z,7.95
2023-05-04T18:27:06.993Z,9.57
2023-05-04T18:29:34.118Z,10.23
2023-05-04T18:32:01.801Z,9.73
2023-05-04T18:34:28.910Z,9.10
2023-05-04T18:36:55.872Z,19.55
2023-05-04T18:39:22.878Z,12.73
2023-05-04T18:41:49.747Z,16.10
2023-05-04T18:44:16.923Z,17.48
2023-05-04T18:46:44.087Z,15.57
2023-05-04T18:49:11.039Z,14.63
2023-05-04T18:51:41.589Z,14.27
2023-05-04T18:54:08.701Z,11.48
2023-05-04T18:56:35.797Z,13.38
2023-05-04T18:59:05.911Z,14.40
2023-05-04T19:01:33.082Z,15.38
2023-05-04T19:04:00.235Z,17.65
2023-05-04T19:06:27.233Z,18.10
2023-05-04T19:08:54.154Z,20.58
2023-05-04T19:11:21.686Z,19.10
2023-05-04T19:13:49.879Z,20.85
2023-05-04T19:16:17.395Z,19.77
2023-05-04T19:18:45.650Z,17.17
2023-05-04T19:21:12.708Z,19.17
2023-05-04T19:23:39.985Z,21.88
2023-05-04T19:26:07.059Z,21.65
2023-05-04T19:28:33.929Z,16.77
2023-05-04T19:31:01.036Z,20.77
2023-05-04T19:33:40.322Z,18.10
2023-05-04T19:36:14.706Z,22.20
2023-05-04T19:38:41.617Z,17.65
2023-05-04T19:41:09.278Z,17.85
2023-05-04T19:43:38.444Z,20.20
2023-05-04T19:46:05.654Z,19.42
2023-05-04T19:48:32.873Z,18.45
2023-05-04T19:51:00.362Z,18.52
2023-05-04T19:53:27.639Z,23.05
2023-05-04T19:55:54.757Z,19.77
2023-05-04T19:58:26.025Z,22.00
2023-05-04T20:00:53.536Z,17.88
2023-05-04T20:03:20.775Z,21.33
2023-05-04T20:05:48.008Z,18.77
2023-05-04T20:08:15.017Z,20.45
2023-05-04T20:10:42.153Z,22.80
2023-05-04T20:13:09.320Z,25.27
2023-05-04T20:15:36.369Z,20.25
2023-05-04T20:18:03.496Z,19.23
2023-05-04T20:20:30.757Z,29.02
2023-05-04T20:22:57.787Z,22.50
2023-05-04T20:25:25.093Z,18.17
2023-05-04T20:27:53.928Z,24.02
2023-05-04T20:30:21.345Z,23.98
2023-05-04T20:32:48.942Z,25.88
2023-05-04T20:35:16.817Z,25.80
2023-05-04T20:37:44.324Z,24.33
2023-05-04T20:40:12.246Z,24.02
2023-05-04T20:42:39.455Z,27.48
2023-05-04T20:45:07.558Z,27.10
2023-05-04T20:47:34.954Z,26.02
2023-05-04T20:50:02.311Z,27.02
2023-05-04T20:52:29.426Z,22.75
2023-05-04T20:54:56.515Z,27.15
2023-05-04T20:57:23.605Z,21.58
2023-05-04T20:59:50.842Z,28.95
2023-05-04T21:02:17.907Z,21.95
2023-05-04T21:04:47.901Z,22.80
2023-05-04T21:07:15.046Z,21.98
2023-05-04T21:09:42.219Z,27.58
2023-05-04T21:12:09.470Z,24.75
2023-05-04T21:14:36.629Z,21.90
2023-05-04T21:17:03.674Z,24.48
2023-05-04T21:19:30.935Z,22.33
2023-05-04T21:21:58.084Z,24.85
2023-05-04T21:24:25.217Z,22.10
2023-05-04T21:26:52.652Z,25.60
2023-05-04T21:29:19.822Z,22.13
2023-05-04T21:31:46.870Z,21.02
2023-05-04T21:34:14.087Z,21.77
2023-05-04T21:36:41.811Z,20.55
2023-05-04T21:39:09.289Z,17.33
2023-05-04T21:41:36.992Z,19.30
2023-05-04T21:44:04.312Z,18.85
2023-05-04T21:46:31.221Z,21.60
2023-05-04T21:48:58.340Z,23.00
2023-05-04T21:51:25.373Z,17.42
2023-05-04T21:53:52.362Z,16.88
2023-05-04T21:56:19.278Z,19.10
2023-05-04T21:58:46.281Z,29.85
2023-05-04T22:01:17.666Z,23.05
2023-05-04T22:03:45.591Z,26.10
2023-05-04T22:06:12.720Z,28.88
2023-05-04T22:08:39.954Z,35.45
2023-05-04T22:11:07.610Z,29.60
2023-05-04T22:13:35.112Z,30.38
2023-05-04T22:16:02.245Z,31.90
2023-05-04T22:18:29.338Z,26.35
2023-05-04T22:20:56.414Z,23.80
2023-05-04T22:23:23.448Z,16.63
2023-05-04T22:25:50.473Z,18.75
2023-05-04T22:28:17.604Z,20.75
2023-05-04T22:30:44.667Z,21.38
2023-05-04T22:33:11.840Z,22.08
2023-05-04T22:35:38.861Z,22.08
2023-05-04T22:38:05.885Z,19.88
2023-05-04T22:40:33.400Z,19.42
2023-05-04T22:43:00.630Z,18.35
2023-05-04T22:45:27.672Z,19.73
2023-05-04T22:47:55.008Z,16.08
2023-05-04T22:50:22.279Z,16.50
2023-05-04T22:52:49.338Z,20.25
2023-05-04T22:55:16.524Z,15.13
2023-05-04T22:57:43.656Z,19.67
2023-05-04T23:00:11.575Z,13.10
2023-05-04T23:02:39.067Z,14.90
2023-05-04T23:05:07.028Z,12.38
2023-05-04T23:07:34.209Z,19.73
2023-05-04T23:10:01.483Z,15.43
2023-05-04T23:12:28.642Z,14.18
2023-05-04T23:14:55.636Z,16.50
2023-05-04T23:17:23.127Z,24.65
2023-05-04T23:19:50.484Z,18.70
2023-05-04T23:22:17.614Z,20.42
2023-05-04T23:24:44.697Z,22.02
2023-05-04T23:27:11.834Z,23.38
2023-05-04T23:29:38.998Z,25.63
2023-05-04T23:32:06.577Z,30.10
2023-05-04T23:34:33.831Z,24.98
2023-05-04T23:37:01.197Z,30.90
2023-05-04T23:39:28.353Z,30.58
2023-05-04T23:41:55.348Z,31.33
2023-05-04T23:44:22.821Z,36.08
2023-05-04T23:46:50.199Z,32.60
2023-05-04T23:49:17.499Z,39.30
2023-05-04T23:51:44.667Z,42.50
2023-05-04T23:54:11.827Z,38.67
2023-05-04T23:56:39.001Z,45.47
2023-05-04T23:59:06.228Z,46.25
